Time;durP1;ratioP1;P1;durP2;ratioP2;P2;SDS_P1;SDS_P2;PMS_P1;PMS_P2;Temp;Humidity;BMP_temperature;BMP_pressure;BME280_temperature;BME280_humidity;BME280_pressure;Samples;Min_cycle;Max_cycle;Signal;HPM_P1;HPM_P2
2022/08/21 00:00:39;;;;;;;6.35;3.17;;;;;;;16.44;62.93;99056.72;5183753;28;20408;-90
2022/08/21 00:03:33;;;;;;;7.80;3.33;;;;;;;17.32;62.65;99196.44;5170360;28;20107;-90
2022/08/21 00:06:24;;;;;;;9.15;3.08;;;;;;;16.64;62.17;99091.03;5182809;28;20216;-90
2022/08/21 00:09:15;;;;;;;6.90;3.17;;;;;;;16.70;61.66;99100.19;5183942;28;20598;-91
2022/08/21 00:12:06;;;;;;;4.03;2.63;;;;;;;17.15;61.33;99195.72;5170337;28;20143;-90
2022/08/21 00:14:57;;;;;;;8.27;3.15;;;;;;;17.10;61.65;99195.47;5166764;28;20124;-90
2022/08/21 00:17:49;;;;;;;6.20;3.00;;;;;;;16.53;62.05;99137.81;5164608;28;20626;-92
2022/08/21 00:20:41;;;;;;;4.50;2.85;;;;;;;16.64;63.33;99182.06;5163560;28;20061;-90
2022/08/21 00:23:34;;;;;;;4.50;3.08;;;;;;;16.03;63.54;99098.19;5169910;28;20057;-91
2022/08/21 00:26:24;;;;;;;5.30;2.70;;;;;;;15.97;63.06;99049.72;5165752;28;20116;-90
2022/08/21 00:29:15;;;;;;;6.57;3.10;;;;;;;16.14;63.35;99074.50;5160967;28;20420;-90
2022/08/21 00:32:06;;;;;;;3.20;2.75;;;;;;;16.12;62.75;99065.81;5159038;28;20144;-91
2022/08/21 00:34:57;;;;;;;6.20;3.00;;;;;;;15.85;63.05;99051.13;5164523;28;20501;-91
2022/08/21 00:37:49;;;;;;;5.72;3.00;;;;;;;15.89;62.71;99055.13;5169583;28;20048;-91
2022/08/21 00:40:51;;;;;;;5.95;3.17;;;;;;;16.45;63.19;99132.50;5175657;28;20144;-90
2022/08/21 00:43:42;;;;;;;6.63;3.25;;;;;;;16.04;63.45;99094.47;5170710;28;20092;-90
2022/08/21 00:46:33;;;;;;;6.30;2.88;;;;;;;16.07;62.66;99067.38;5177214;28;20050;-90
2022/08/21 00:49:23;;;;;;;6.22;3.25;;;;;;;15.78;63.70;99044.00;5169862;28;20054;-90
2022/08/21 00:52:19;;;;;;;5.95;2.97;;;;;;;16.34;64.19;99117.69;5177067;28;20108;-91
2022/08/21 00:55:12;;;;;;;5.78;3.38;;;;;;;16.34;64.90;99179.22;5183964;28;20053;-90
2022/08/21 00:58:07;;;;;;;5.60;2.97;;;;;;;15.43;65.89;99072.84;5184364;28;20050;-90
2022/08/21 01:01:01;;;;;;;6.72;3.80;;;;;;;15.77;65.40;99127.88;5194453;28;20037;-89
2022/08/21 01:03:58;;;;;;;6.80;3.20;;;;;;;15.79;65.20;99096.44;5174313;28;20061;-90
2022/08/21 01:06:51;;;;;;;8.23;3.65;;;;;;;15.56;64.23;99034.88;5163477;28;20535;-90
2022/08/21 01:09:43;;;;;;;8.70;3.40;;;;;;;15.43;64.58;99033.63;5169508;28;20077;-90
2022/08/21 01:12:34;;;;;;;6.70;3.40;;;;;;;15.38;65.27;99043.97;5169892;28;20089;-91
2022/08/21 01:15:32;;;;;;;6.82;3.38;;;;;;;15.58;64.89;99094.34;5182925;28;20057;-91
2022/08/21 01:18:23;;;;;;;10.02;3.47;;;;;;;15.22;65.51;99060.06;5183428;28;20054;-90
2022/08/21 01:21:17;;;;;;;4.07;3.22;;;;;;;14.97;66.87;99041.47;5169818;28;20463;-90
2022/08/21 01:24:09;;;;;;;6.57;3.63;;;;;;;15.19;65.48;99036.38;5181606;28;20061;-91
2022/08/21 01:27:00;;;;;;;6.38;3.03;;;;;;;15.71;65.26;99118.72;5173125;28;20049;-91
2022/08/21 01:29:58;;;;;;;5.00;3.28;;;;;;;15.29;65.78;99087.75;5167301;28;20053;-90
2022/08/21 01:32:53;;;;;;;5.78;3.20;;;;;;;15.77;65.98;99130.56;5173602;28;20052;-90
2022/08/21 01:35:44;;;;;;;5.75;3.20;;;;;;;15.74;65.37;99134.41;5186525;28;20097;-90
2022/08/21 01:38:40;;;;;;;5.75;3.58;;;;;;;15.50;65.20;99113.94;5173312;28;20100;-90
2022/08/21 01:41:34;;;;;;;7.22;4.22;;;;;;;15.73;66.46;99187.03;5184392;28;20089;-90
2022/08/21 01:44:25;;;;;;;4.82;3.42;;;;;;;15.09;66.26;99089.16;5185862;28;20100;-91
2022/08/21 01:47:18;;;;;;;4.43;3.33;;;;;;;15.78;66.19;99177.66;5185919;28;20324;-92
2022/08/21 01:50:14;;;;;;;6.13;3.78;;;;;;;14.69;66.66;99032.16;5172222;28;20165;-92
2022/08/21 01:53:05;;;;;;;6.75;3.70;;;;;;;15.17;66.41;99071.28;5172260;28;20052;-92
2022/08/21 01:55:58;;;;;;;6.57;3.80;;;;;;;15.23;67.00;99099.13;5171808;28;20057;-90
2022/08/21 01:58:51;;;;;;;6.38;4.03;;;;;;;15.22;67.54;99118.84;5167123;28;20431;-91
2022/08/21 02:01:42;;;;;;;9.07;4.43;;;;;;;15.54;68.01;99181.22;5178818;28;20519;-90
2022/08/21 02:04:35;;;;;;;7.00;4.05;;;;;;;15.03;67.65;99083.50;5179464;28;20145;-91
2022/08/21 02:07:27;;;;;;;7.32;4.45;;;;;;;15.10;66.39;99074.78;5164479;28;20176;-91
2022/08/21 02:10:26;;;;;;;9.88;4.00;;;;;;;15.16;66.59;99111.50;5185598;28;20065;-91
2022/08/21 02:13:18;;;;;;;8.73;4.20;;;;;;;14.56;66.96;99020.16;5185492;28;20049;-89
2022/08/21 02:16:09;;;;;;;9.65;4.18;;;;;;;14.42;67.64;99020.81;5184251;28;20057;-90
2022/08/21 02:19:00;;;;;;;14.00;4.57;;;;;;;14.40;67.67;99028.13;5166526;28;20124;-90
2022/08/21 02:21:50;;;;;;;7.63;4.07;;;;;;;14.75;67.71;99071.53;5185416;28;20058;-91
2022/08/21 02:24:41;;;;;;;9.07;4.40;;;;;;;15.21;67.60;99098.47;5170592;28;20138;-90
2022/08/21 02:27:47;;;;;;;7.28;5.10;;;;;;;14.59;67.70;99002.16;5171685;28;20064;-91
2022/08/21 02:30:41;;;;;;;8.43;5.10;;;;;;;14.67;67.62;99018.16;5158095;28;20517;-90
2022/08/21 02:33:34;;;;;;;8.13;5.20;;;;;;;14.58;67.39;99033.34;5172340;28;20046;-91
2022/08/21 02:36:28;;;;;;;10.57;5.10;;;;;;;14.97;67.21;99129.56;5184843;28;20050;-91
2022/08/21 02:39:19;;;;;;;10.23;5.38;;;;;;;14.19;67.76;98998.50;5171187;28;20273;-90
2022/08/21 02:42:17;;;;;;;8.05;4.60;;;;;;;14.34;68.00;98987.00;5185246;28;20080;-90
2022/08/21 02:45:08;;;;;;;5.05;4.20;;;;;;;14.90;66.83;99077.84;5182670;28;20065;-90
2022/08/21 02:48:04;;;;;;;6.15;4.22;;;;;;;14.98;66.82;99109.88;5170883;28;20322;-90
2022/08/21 02:50:58;;;;;;;7.10;4.68;;;;;;;14.65;67.59;99102.91;5164808;28;20061;-89
2022/08/21 02:53:50;;;;;;;8.15;4.35;;;;;;;14.86;68.04;99155.75;5150714;28;20136;-90
2022/08/21 02:56:43;;;;;;;8.80;4.97;;;;;;;13.95;68.17;99012.66;5155978;28;20506;-90
2022/08/21 02:59:37;;;;;;;8.85;4.97;;;;;;;14.16;67.78;99036.16;5171170;28;20046;-91
2022/08/21 03:02:27;;;;;;;10.25;5.05;;;;;;;14.09;67.93;98988.81;5160316;28;20049;-91
2022/08/21 03:05:19;;;;;;;8.48;4.80;;;;;;;14.48;67.45;99048.66;5170787;28;20057;-89
2022/08/21 03:08:14;;;;;;;7.40;4.75;;;;;;;14.64;67.43;99078.03;5170937;28;20111;-91
2022/08/21 03:11:06;;;;;;;9.68;4.68;;;;;;;14.88;67.31;99127.06;5170862;28;20050;-89
2022/08/21 03:14:05;;;;;;;9.13;4.97;;;;;;;14.61;67.87;99081.03;5172292;28;20085;-90
2022/08/21 03:17:02;;;;;;;10.15;4.57;;;;;;;14.75;67.49;99072.34;5171365;28;20496;-90
2022/08/21 03:19:56;;;;;;;13.38;4.53;;;;;;;14.11;69.29;98999.34;5167187;28;20053;-90
2022/08/21 03:22:47;;;;;;;5.60;4.30;;;;;;;14.20;68.74;99005.47;5172653;28;20058;-90
2022/08/21 03:25:43;;;;;;;9.07;4.90;;;;;;;14.76;68.19;99099.88;5176795;28;20566;-90
2022/08/21 03:28:35;;;;;;;6.45;4.15;;;;;;;14.56;68.10;99099.38;5173869;28;20056;-91
2022/08/21 03:31:31;;;;;;;5.70;4.18;;;;;;;14.24;68.22;99074.34;5179866;28;20056;-90
2022/08/21 03:34:24;;;;;;;10.25;4.53;;;;;;;14.43;69.11;99123.03;5170777;28;20519;-91
2022/08/21 03:37:16;;;;;;;9.35;4.43;;;;;;;13.97;68.27;99056.81;5181794;28;20046;-90
2022/08/21 03:40:12;;;;;;;5.18;3.88;;;;;;;14.27;69.69;99102.50;5183827;28;20086;-90
2022/08/21 03:43:09;;;;;;;6.82;4.18;;;;;;;13.81;69.65;99022.97;5183724;28;20092;-91
2022/08/21 03:46:04;;;;;;;8.68;4.32;;;;;;;13.81;70.12;99022.13;5171424;28;20656;-90
2022/08/21 03:48:57;;;;;;;8.25;3.92;;;;;;;13.72;68.58;99015.09;5150636;28;20061;-90
2022/08/21 03:51:47;;;;;;;7.88;3.92;;;;;;;14.23;68.94;99087.81;5178086;28;20046;-91
2022/08/21 03:54:50;;;;;;;7.30;3.97;;;;;;;13.80;70.43;99041.75;5151447;28;20513;-90
2022/08/21 03:57:41;;;;;;;8.93;4.40;;;;;;;14.22;70.17;99091.50;5163162;28;20054;-90
2022/08/21 04:00:33;;;;;;;5.38;3.60;;;;;;;13.90;70.18;99038.94;5167749;28;20053;-90
2022/08/21 04:03:29;;;;;;;8.25;4.15;;;;;;;14.09;70.80;99055.47;5181902;28;20049;-91
2022/08/21 04:07:39;;;;;;;;;;;;;;;;;;;;;
2022/08/21 04:11:02;;;;;;;7.18;4.22;;;;;;;14.30;69.72;99088.81;5212704;28;20072;-90
2022/08/21 04:15:03;;;;;;;4.82;4.07;;;;;;;14.05;68.03;99043.47;5201973;28;20068;-90
2022/08/21 04:17:56;;;;;;;7.35;4.07;;;;;;;14.05;70.11;99102.13;5157730;28;20061;-91
2022/08/21 04:20:50;;;;;;;7.47;4.40;;;;;;;13.92;69.78;99052.97;5189921;28;20075;-90
2022/08/21 04:24:00;;;;;;;6.53;4.20;;;;;;;14.81;68.39;99188.31;5156951;28;20050;-90
2022/08/21 04:26:51;;;;;;;6.28;3.80;;;;;;;13.83;68.32;99078.75;5184249;28;20053;-91
2022/08/21 04:29:44;;;;;;;6.95;4.07;;;;;;;13.63;69.59;99055.03;5169309;28;20050;-89
2022/08/21 04:32:41;;;;;;;8.32;4.32;;;;;;;14.13;69.33;99137.81;5189171;28;20049;-90
2022/08/21 04:35:40;;;;;;;6.18;4.45;;;;;;;14.09;71.74;99151.47;5184679;28;20513;-91
2022/08/21 04:38:37;;;;;;;9.15;4.20;;;;;;;14.08;69.98;99109.81;5182016;28;20046;-89
2022/08/21 04:41:34;;;;;;;7.70;4.22;;;;;;;14.07;68.38;99094.81;5187183;28;20483;-91
2022/08/21 04:44:25;;;;;;;8.35;4.63;;;;;;;13.94;68.91;99105.13;5168829;28;20054;-91
2022/08/21 04:47:41;;;;;;;6.35;4.18;;;;;;;14.70;69.19;99224.16;5155758;28;20490;-90
2022/08/21 04:50:48;;;;;;;7.07;4.47;;;;;;;14.62;68.94;99216.13;5169181;28;20514;-89
2022/08/21 04:54:18;;;;;;;11.27;3.83;;;;;;;13.51;70.27;99079.47;5179459;28;20049;-90
2022/08/21 04:57:15;;;;;;;6.38;4.15;;;;;;;13.58;70.73;99075.19;5125107;28;20058;-90
2022/08/21 05:00:07;;;;;;;6.78;4.35;;;;;;;14.58;70.31;99217.47;5179511;28;20064;-91
2022/08/21 05:03:07;;;;;;;8.10;5.00;;;;;;;14.80;70.20;99219.50;5189111;28;20060;-90
2022/08/21 05:06:06;;;;;;;8.75;4.32;;;;;;;14.33;70.05;99147.19;5193703;28;20053;-90
2022/08/21 05:08:58;;;;;;;8.30;4.97;;;;;;;14.23;70.16;99125.16;5157439;28;20056;-90
2022/08/21 05:11:55;;;;;;;7.95;4.63;;;;;;;13.93;70.44;99092.75;5160053;28;20050;-91
2022/08/21 05:14:49;;;;;;;7.13;4.80;;;;;;;14.23;70.00;99130.50;5186560;28;20045;-90
2022/08/21 05:17:44;;;;;;;8.05;5.43;;;;;;;13.85;69.97;99085.59;5199765;28;20041;-91
2022/08/21 05:20:56;;;;;;;5.55;4.70;;;;;;;14.55;69.76;99202.63;5175774;28;20071;-90
2022/08/21 05:23:54;;;;;;;6.28;4.40;;;;;;;14.09;70.26;99145.31;5186545;28;20053;-90
2022/08/21 05:26:53;;;;;;;10.88;4.80;;;;;;;14.24;70.89;99153.53;5179608;28;20084;-90
2022/08/21 05:29:51;;;;;;;6.38;4.40;;;;;;;14.34;70.67;99178.22;5200388;28;20315;-90
2022/08/21 05:32:43;;;;;;;7.82;5.80;;;;;;;14.03;71.35;99112.13;5173650;28;20058;-91
2022/08/21 05:35:42;;;;;;;7.10;5.07;;;;;;;14.19;70.59;99124.66;5209098;28;20057;-91
2022/08/21 05:38:36;;;;;;;6.50;4.95;;;;;;;14.22;70.87;99102.16;5200228;28;20052;-90
2022/08/21 05:41:32;;;;;;;7.45;5.38;;;;;;;14.34;70.82;99099.00;5180125;28;20089;-91
2022/08/21 05:44:25;;;;;;;8.75;6.28;;;;;;;15.01;71.37;99192.31;5179663;28;20108;-90
2022/08/21 05:47:21;;;;;;;8.52;5.95;;;;;;;14.70;70.24;99127.22;5192435;28;20092;-91
2022/08/21 05:50:21;;;;;;;8.55;5.50;;;;;;;15.34;70.04;99234.19;5179368;28;20046;-90
2022/08/21 05:53:13;;;;;;;11.55;6.45;;;;;;;14.84;70.36;99131.91;5192388;28;20435;-90
2022/08/21 05:56:10;;;;;;;;;;;;;;;15.34;72.12;99248.38;5194205;28;20056;-91
2022/08/21 05:59:03;;;;;;;10.63;6.43;;;;;;;15.40;71.03;99196.94;5198845;28;19979;-91
2022/08/21 06:02:03;;;;;;;14.00;7.00;;;;;;;14.98;71.43;99109.88;5187451;28;20497;-90
2022/08/21 06:04:58;;;;;;;9.93;6.90;;;;;;;15.62;71.03;99208.75;5185760;28;20128;-91
2022/08/21 06:07:51;;;;;;;12.82;7.40;;;;;;;15.45;71.55;99157.19;5172277;28;20081;-90
2022/08/21 06:10:46;;;;;;;12.00;7.97;;;;;;;15.97;71.58;99250.28;5158485;28;20057;-89
2022/08/21 06:18:30;;;;;;;11.10;7.38;;;;;;;16.30;70.03;99242.16;5211550;23;20057;-80
2022/08/21 06:21:20;;;;;;;14.68;8.35;;;;;;;16.53;70.42;99252.06;5206927;28;20052;-80
2022/08/21 06:24:10;;;;;;;14.18;7.90;;;;;;;16.60;69.96;99253.88;5223871;28;20052;-80
2022/08/21 06:27:06;;;;;;;12.35;7.78;;;;;;;16.72;70.38;99248.94;5208899;28;20658;-80
2022/08/21 06:29:58;;;;;;;11.40;7.90;;;;;;;16.95;69.97;99253.50;5206914;28;20051;-81
2022/08/21 06:32:48;;;;;;;10.93;8.60;;;;;;;16.83;70.47;99234.34;5225053;28;20068;-79
2022/08/21 06:35:39;;;;;;;15.23;8.40;;;;;;;17.32;69.25;99233.97;5204623;28;20547;-80
2022/08/21 06:38:30;;;;;;;13.77;8.07;;;;;;;17.33;70.15;99232.94;5210338;28;20167;-80
2022/08/21 06:41:21;;;;;;;19.60;9.05;;;;;;;17.21;70.87;99229.84;5204009;28;20056;-78
2022/08/21 06:44:17;;;;;;;12.80;8.23;;;;;;;17.63;69.13;99241.88;5217417;28;20150;-78
2022/08/21 06:47:08;;;;;;;14.55;8.32;;;;;;;17.66;68.11;99222.72;5205774;28;20060;-80
2022/08/21 06:49:58;;;;;;;16.60;8.57;;;;;;;17.85;68.12;99221.38;5225765;28;20059;-79
2022/08/21 06:52:48;;;;;;;12.05;8.02;;;;;;;18.08;67.31;99216.75;5225969;28;20079;-81
2022/08/21 06:55:40;;;;;;;13.40;7.57;;;;;;;18.42;66.58;99233.25;5232799;28;20680;-80
2022/08/21 06:58:30;;;;;;;10.82;7.50;;;;;;;18.37;66.83;99220.38;5219037;28;20052;-82
2022/08/21 07:01:23;;;;;;;10.00;6.95;;;;;;;18.55;65.57;99223.50;5224555;28;20154;-80
2022/08/21 07:04:14;;;;;;;10.50;6.45;;;;;;;18.69;65.46;99221.78;5231171;28;20427;-83
2022/08/21 07:07:05;;;;;;;7.60;6.03;;;;;;;18.81;64.43;99218.63;5211431;28;20060;-82
2022/08/21 07:09:55;;;;;;;11.73;6.57;;;;;;;19.02;64.41;99224.00;5209527;28;20068;-80
2022/08/21 07:12:45;;;;;;;9.43;6.75;;;;;;;19.07;63.87;99218.88;5225189;28;20044;-81
2022/08/21 07:15:40;;;;;;;9.45;6.50;;;;;;;19.31;63.88;99224.88;5202648;28;20056;-83
2022/08/21 07:18:30;;;;;;;10.00;6.47;;;;;;;19.47;62.82;99228.13;5213402;28;20049;-83
2022/08/21 07:21:21;;;;;;;11.18;6.28;;;;;;;19.71;61.92;99216.09;5222955;28;20833;-83
2022/08/21 07:24:15;;;;;;;10.57;6.40;;;;;;;19.60;62.13;99196.94;5227339;28;20079;-83
2022/08/21 07:27:05;;;;;;;8.25;5.30;;;;;;;20.11;60.78;99215.50;5211559;28;20056;-80
2022/08/21 07:29:59;;;;;;;8.15;5.47;;;;;;;20.16;59.74;99183.41;5198277;28;20045;-82
2022/08/21 07:32:50;;;;;;;11.65;5.75;;;;;;;20.89;59.21;99213.25;5204438;28;20425;-80
2022/08/21 07:35:40;;;;;;;11.57;5.97;;;;;;;21.23;57.26;99224.94;5185555;28;20052;-82
2022/08/21 07:38:31;;;;;;;9.65;6.25;;;;;;;21.26;57.53;99213.72;5213489;28;20049;-83
2022/08/21 07:41:26;;;;;;;14.52;5.78;;;;;;;21.56;56.63;99225.78;5213163;28;20052;-84
2022/08/21 07:44:16;;;;;;;10.27;6.10;;;;;;;22.24;54.72;99200.28;5215009;28;20049;-83
2022/08/21 07:47:06;;;;;;;10.52;5.70;;;;;;;23.02;52.94;99218.19;5218550;28;20049;-87
2022/08/21 07:49:57;;;;;;;11.40;5.60;;;;;;;24.21;49.00;99181.84;5204036;28;20127;-84
2022/08/21 07:52:47;;;;;;;13.15;5.40;;;;;;;24.61;48.32;99216.59;5224572;28;20055;-84
2022/08/21 07:55:38;;;;;;;10.75;5.18;;;;;;;25.57;45.13;99209.25;5209408;28;20618;-85
2022/08/21 07:58:28;;;;;;;8.70;4.65;;;;;;;24.60;46.59;99204.06;5205683;28;20103;-86
2022/08/21 08:01:19;;;;;;;8.18;5.03;;;;;;;25.84;45.14;99209.63;5208609;28;20056;-84
2022/08/21 08:04:09;;;;;;;7.20;4.82;;;;;;;24.91;44.54;99189.44;5222851;28;20064;-84
2022/08/21 08:07:00;;;;;;;7.50;4.53;;;;;;;25.03;44.14;99195.72;5209276;28;20191;-85
2022/08/21 08:09:50;;;;;;;7.85;5.30;;;;;;;26.16;42.28;99199.16;5213381;28;20084;-83
2022/08/21 08:12:42;;;;;;;12.65;4.88;;;;;;;26.79;40.89;99196.56;5208376;28;20075;-80
2022/08/21 08:15:32;;;;;;;9.95;5.13;;;;;;;27.58;39.18;99200.13;5209004;28;20163;-82
2022/08/21 08:18:26;;;;;;;;;;;;;;;27.88;39.33;99198.91;5208408;28;20088;-82
2022/08/21 08:21:18;;;;;;;8.15;5.20;;;;;;;26.32;43.56;99164.13;5214008;28;20294;-82
2022/08/21 08:24:08;;;;;;;10.13;5.03;;;;;;;27.17;42.79;99191.28;5210583;28;20105;-84
2022/08/21 08:27:08;;;;;;;13.98;6.03;;;;;;;28.14;38.29;99183.69;5226589;28;20060;-83
2022/08/21 08:29:58;;;;;;;9.00;5.68;;;;;;;27.56;40.38;99182.38;5237752;28;20622;-83
2022/08/21 08:32:49;;;;;;;9.10;5.50;;;;;;;27.80;40.94;99153.03;5229868;28;20052;-83
2022/08/21 08:35:42;;;;;;;8.82;5.18;;;;;;;27.92;38.16;99185.63;5229949;28;20510;-80
2022/08/21 08:38:32;;;;;;;10.63;5.63;;;;;;;27.43;39.85;99177.25;5208967;28;20175;-80
2022/08/21 08:41:23;;;;;;;11.07;5.30;;;;;;;29.01;37.82;99150.03;5223343;28;20098;-82
2022/08/21 08:44:19;;;;;;;9.95;5.82;;;;;;;27.37;39.60;99169.00;5222317;28;20072;-81
2022/08/21 08:47:13;;;;;;;9.10;6.05;;;;;;;28.12;38.76;99160.53;5209337;28;20717;-80
2022/08/21 08:50:20;;;;;;;9.88;5.35;;;;;;;29.74;37.06;99165.84;5222435;28;20132;-82
2022/08/21 08:53:27;;;;;;;10.00;5.60;;;;;;;29.39;36.71;99115.31;5207612;28;20429;-81
2022/08/21 08:56:27;;;;;;;10.68;5.43;;;;;;;29.65;35.38;99132.72;5195876;28;20745;-82
2022/08/21 08:59:22;;;;;;;9.30;5.25;;;;;;;29.56;34.60;99141.66;5218608;28;20040;-84
2022/08/21 09:02:15;;;;;;;8.90;5.00;;;;;;;29.89;33.40;99149.50;5204711;28;20142;-81
2022/08/21 09:05:07;;;;;;;7.55;5.20;;;;;;;30.65;32.33;99150.84;5219003;28;20064;-81
2022/08/21 09:08:30;;;;;;;7.97;4.63;;;;;;;30.64;33.15;99150.03;5227772;28;20622;-81
2022/08/21 09:11:41;;;;;;;9.25;4.93;;;;;;;31.09;31.99;99123.81;5209831;28;20052;-80
2022/08/21 09:14:54;;;;;;;10.20;5.35;;;;;;;31.37;31.37;99150.91;5214161;28;20590;-84
2022/08/21 09:18:03;;;;;;;8.75;4.78;;;;;;;31.97;29.99;99152.69;5216065;28;20090;-85
2022/08/21 09:21:12;;;;;;;8.18;4.45;;;;;;;32.09;30.54;99146.88;5220742;28;20150;-82
2022/08/21 09:24:18;;;;;;;9.60;5.70;;;;;;;31.22;31.11;99113.34;5228351;28;20057;-83
2022/08/21 09:27:17;;;;;;;7.18;3.88;;;;;;;30.57;30.94;99137.72;5211899;28;20056;-81
2022/08/21 09:30:09;;;;;;;8.75;4.35;;;;;;;30.66;31.59;99139.66;5213719;28;20832;-81
2022/08/21 09:33:00;;;;;;;15.27;4.63;;;;;;;29.90;33.26;99123.81;5213922;28;20051;-81
2022/08/21 09:35:53;;;;;;;10.65;3.83;;;;;;;31.25;30.37;99119.09;5210221;28;20056;-84
2022/08/21 09:38:53;;;;;;;7.88;3.45;;;;;;;31.24;31.01;99119.38;5220401;28;20052;-84
2022/08/21 09:41:44;;;;;;;9.13;3.88;;;;;;;30.98;30.30;99088.47;5208746;28;20052;-81
2022/08/21 09:44:43;;;;;;;8.65;3.40;;;;;;;30.98;28.85;99105.72;5216336;28;20206;-84
2022/08/21 09:47:33;;;;;;;5.90;3.13;;;;;;;31.48;29.64;99108.69;5213625;28;20099;-82
2022/08/21 09:50:26;;;;;;;5.63;3.00;;;;;;;30.91;29.79;99123.53;5208176;28;20057;-81
2022/08/21 09:53:26;;;;;;;5.90;2.90;;;;;;;31.86;28.42;99114.59;5227434;28;20047;-83
2022/08/21 09:59:37;;;;;;;8.00;3.08;;;;;;;31.88;28.25;99118.69;5225489;28;20060;-85
2022/08/21 10:02:30;;;;;;;10.30;3.42;;;;;;;31.71;28.37;99094.34;5225774;28;20135;-83
2022/08/21 10:05:25;;;;;;;11.13;3.55;;;;;;;32.70;27.49;99088.88;5218141;28;20053;-82
2022/08/21 10:08:20;;;;;;;12.32;3.38;;;;;;;32.25;27.77;99088.09;5213753;28;20050;-83
2022/08/21 10:11:14;;;;;;;7.50;2.88;;;;;;;33.27;26.75;99088.38;5233019;28;20135;-82
2022/08/21 10:14:44;;;;;;;9.20;3.10;;;;;;;33.14;27.30;99101.69;5230620;28;20087;-82
2022/08/21 10:17:49;;;;;;;7.70;3.53;;;;;;;32.71;27.80;99093.25;5228944;28;20045;-83
2022/08/21 10:21:12;;;;;;;6.93;3.15;;;;;;;33.44;27.33;99086.00;5226516;28;20056;-82
2022/08/21 10:24:23;;;;;;;11.05;3.25;;;;;;;33.34;26.36;99083.34;5228883;28;20557;-82
2022/08/21 10:27:36;;;;;;;8.27;2.97;;;;;;;32.28;27.71;99089.41;5213073;28;20321;-84
2022/08/21 10:30:52;;;;;;;7.28;3.22;;;;;;;32.63;28.10;99076.59;5226940;28;20045;-82
2022/08/21 10:33:53;;;;;;;7.40;3.30;;;;;;;31.47;28.89;99080.47;5215523;28;20051;-83
2022/08/21 10:37:16;;;;;;;9.20;3.58;;;;;;;32.12;28.43;99077.75;5209415;28;20045;-84
2022/08/21 10:40:19;;;;;;;8.77;3.13;;;;;;;31.39;28.29;99055.53;5211444;28;20103;-82
2022/08/21 10:43:32;;;;;;;6.70;3.20;;;;;;;31.29;28.48;99073.63;5206089;28;20060;-82
2022/08/21 10:46:52;;;;;;;9.43;3.53;;;;;;;31.24;29.58;99064.59;5221953;28;20537;-83
2022/08/21 10:50:11;;;;;;;8.13;3.20;;;;;;;31.65;29.12;99064.50;5222414;28;20045;-83
2022/08/21 10:53:14;;;;;;;6.45;3.00;;;;;;;31.31;28.35;99038.56;5221570;28;20049;-83
2022/08/21 10:56:16;;;;;;;6.65;3.22;;;;;;;31.26;28.94;99027.63;5208579;28;20151;-82
2022/08/21 10:59:28;;;;;;;8.77;3.08;;;;;;;31.10;29.37;99059.69;5202590;28;20139;-84
2022/08/21 11:02:38;;;;;;;7.70;3.30;;;;;;;31.30;29.54;99052.53;5201559;28;20056;-84
2022/08/21 11:05:45;;;;;;;5.35;2.78;;;;;;;31.64;29.79;99051.91;5223752;28;20048;-84
2022/08/21 11:08:50;;;;;;;8.00;2.92;;;;;;;31.15;28.97;99045.16;5226195;28;20068;-83
2022/08/21 11:11:54;;;;;;;8.82;3.45;;;;;;;31.82;28.62;99049.34;5205207;28;20056;-83
2022/08/21 11:15:27;;;;;;;7.90;3.17;;;;;;;31.39;30.80;99039.09;5209678;28;20063;-83
2022/08/21 11:18:33;;;;;;;6.32;2.80;;;;;;;31.22;28.78;99042.94;5209525;28;20080;-84
2022/08/21 11:21:48;;;;;;;7.75;2.92;;;;;;;31.47;28.64;99035.81;5208566;28;20064;-82
2022/08/21 11:25:02;;;;;;;4.30;2.95;;;;;;;31.35;29.22;99047.06;5207502;28;21215;-82
2022/08/21 11:27:59;;;;;;;8.40;2.75;;;;;;;31.68;28.93;99036.53;5225260;28;20068;-83
2022/08/21 11:31:19;;;;;;;6.47;3.10;;;;;;;31.12;28.69;99035.56;5224706;28;20041;-83
2022/08/21 11:34:42;;;;;;;9.52;2.92;;;;;;;30.96;27.69;99033.16;5217342;28;20049;-84
2022/08/21 11:37:54;;;;;;;3.97;2.72;;;;;;;31.10;27.99;99020.56;5197325;28;20045;-83
2022/08/21 11:41:01;;;;;;;6.25;2.75;;;;;;;31.33;29.61;99030.09;5210031;28;20044;-82
2022/08/21 11:44:21;;;;;;;5.15;2.30;;;;;;;31.21;28.27;99019.41;5210652;28;20056;-83
2022/08/21 11:47:25;;;;;;;6.70;2.88;;;;;;;31.37;27.38;99013.91;5195891;28;20057;-83
2022/08/21 11:50:18;;;;;;;;;;;;;;;30.69;27.56;99015.09;5211442;28;20123;-81
2022/08/21 11:53:36;;;;;;;8.65;3.28;;;;;;;30.55;27.44;99003.06;5217720;28;20394;-79
2022/08/21 11:56:42;;;;;;;6.53;2.72;;;;;;;30.65;27.76;99003.88;5226017;28;20048;-82
2022/08/21 11:59:39;;;;;;;5.53;2.30;;;;;;;30.40;25.78;99012.94;5211493;28;20045;-84
2022/08/21 12:02:35;;;;;;;6.22;2.30;;;;;;;30.75;27.06;99000.31;5222663;28;20107;-80
2022/08/21 12:05:39;;;;;;;6.63;2.40;;;;;;;31.01;26.90;99016.72;5217466;28;20048;-84
2022/08/21 12:08:35;;;;;;;6.20;2.75;;;;;;;31.25;27.96;99017.75;5214383;28;20588;-82
2022/08/21 12:11:26;;;;;;;4.68;2.42;;;;;;;31.14;27.18;98999.72;5211613;28;20045;-85
2022/08/21 12:14:19;;;;;;;;;;;;;;;31.30;26.59;99009.53;5208983;28;20056;-83
2022/08/21 12:17:21;;;;;;;5.70;2.22;;;;;;;30.73;26.57;99007.16;5220055;28;19927;-85
2022/08/21 12:20:34;;;;;;;7.35;2.70;;;;;;;30.11;27.29;98973.50;5207700;28;20064;-83
2022/08/21 12:23:42;;;;;;;7.07;2.70;;;;;;;30.53;27.13;98973.25;5222858;28;20098;-83
2022/08/21 12:26:51;;;;;;;7.95;2.45;;;;;;;29.86;28.36;98982.47;5217732;28;20063;-82
2022/08/21 12:29:47;;;;;;;9.18;2.50;;;;;;;30.23;28.43;98985.00;5214486;28;20644;-83
2022/08/21 12:32:40;;;;;;;7.50;2.50;;;;;;;29.95;27.67;98973.47;5224346;22;20626;-68
2022/08/21 12:35:38;;;;;;;3.33;2.28;;;;;;;29.76;29.03;98979.72;5237644;28;20114;-68
2022/08/21 12:38:51;;;;;;;6.28;2.55;;;;;;;29.72;27.69;98973.97;5233319;28;20048;-70
2022/08/21 12:41:51;;;;;;;4.50;2.50;;;;;;;29.94;28.15;98974.56;5202287;28;20094;-69
2022/08/21 12:44:53;;;;;;;6.70;2.53;;;;;;;29.94;27.64;98960.91;5209006;28;20179;-70
2022/08/21 12:47:49;;;;;;;7.88;2.38;;;;;;;29.99;27.62;98967.47;5216436;28;20142;-69
2022/08/21 12:51:09;;;;;;;7.03;2.50;;;;;;;29.99;28.26;98951.88;5208450;28;20069;-69
2022/08/21 12:54:00;;;;;;;4.90;2.50;;;;;;;29.83;28.24;98947.47;5216511;28;20067;-71
2022/08/21 12:57:02;;;;;;;5.40;2.15;;;;;;;30.00;28.35;98960.91;5213587;28;20072;-71
2022/08/21 12:59:58;;;;;;;6.18;2.25;;;;;;;29.44;27.86;98962.41;5211501;28;20629;-70
2022/08/21 13:02:50;;;;;;;5.40;2.30;;;;;;;28.95;28.42;98959.97;5210986;28;20158;-70
2022/08/21 13:05:40;;;;;;;7.05;2.95;;;;;;;28.83;29.80;98962.06;5209666;28;20609;-69
2022/08/21 13:08:34;;;;;;;7.22;2.75;;;;;;;28.95;29.76;98957.22;5205288;28;20053;-69
2022/08/21 13:11:31;;;;;;;7.90;2.65;;;;;;;29.64;28.06;98961.66;5206865;28;20090;-69
2022/08/21 13:14:30;;;;;;;6.95;2.60;;;;;;;29.30;29.16;98946.75;5205139;28;20137;-69
2022/08/21 13:17:23;;;;;;;6.88;2.50;;;;;;;29.40;27.80;98955.00;5201452;28;20136;-69
2022/08/21 13:20:20;;;;;;;;;;;;;;;29.20;27.99;98955.72;5205051;28;20071;-69
2022/08/21 13:23:28;;;;;;;5.35;2.05;;;;;;;28.97;28.41;98965.16;5217459;28;19974;-69
2022/08/21 13:26:20;;;;;;;7.03;2.38;;;;;;;29.40;28.04;98953.06;5219058;28;20056;-69
2022/08/21 13:29:15;;;;;;;7.10;2.60;;;;;;;29.36;28.64;98948.44;5216774;28;20044;-69
2022/08/21 13:32:21;;;;;;;5.38;2.30;;;;;;;29.67;28.29;98939.28;5215359;28;20057;-69
2022/08/21 13:35:17;;;;;;;6.90;2.53;;;;;;;29.34;27.00;98953.31;5214361;28;20070;-68
2022/08/21 13:38:07;;;;;;;9.98;2.25;;;;;;;29.31;28.14;98946.50;5198347;28;20503;-69
2022/08/21 13:41:04;;;;;;;6.38;2.50;;;;;;;29.38;28.49;98944.34;5203569;28;20041;-69
2022/08/21 13:43:58;;;;;;;6.57;2.75;;;;;;;29.37;27.56;98945.44;5217607;28;20060;-69
2022/08/21 13:46:49;;;;;;;5.15;2.30;;;;;;;29.22;27.53;98937.19;5215972;28;20455;-69
2022/08/21 13:49:49;;;;;;;5.07;2.65;;;;;;;29.17;27.73;98926.22;5221342;28;20044;-69
2022/08/21 13:52:58;;;;;;;6.97;2.20;;;;;;;29.04;26.58;98924.84;5218925;28;20422;-69
2022/08/21 13:55:49;;;;;;;4.65;2.15;;;;;;;29.15;26.90;98910.13;5221727;28;20096;-69
2022/08/21 13:58:46;;;;;;;4.55;1.95;;;;;;;29.19;27.83;98929.53;5221076;28;20144;-69
2022/08/21 14:01:48;;;;;;;3.72;2.00;;;;;;;29.28;27.05;98927.94;5214992;28;20118;-69
2022/08/21 14:04:49;;;;;;;5.10;2.05;;;;;;;29.09;26.88;98924.03;5216363;28;20068;-69